Time;durP1;ratioP1;P1;durP2;ratioP2;P2;SDS_P1;SDS_P2;PMS_P1;PMS_P2;Temp;Humidity;BMP_temperature;BMP_pressure;BME280_temperature;BME280_humidity;BME280_pressure;Samples;Min_cycle;Max_cycle;Signal;HPM_P1;HPM_P2
2023/05/04 00:00:15;;;;;;;9.50;3.65;;;;;;;3.27;100.00;102645.09;5019257;28;20701;-44
2023/05/04 00:02:41;;;;;;;8.95;4.25;;;;;;;3.24;100.00;102650.34;5021393;28;20208;-43
2023/05/04 00:05:07;;;;;;;9.40;4.03;;;;;;;3.25;100.00;102649.47;5013402;28;20234;-43
2023/05/04 00:07:33;;;;;;;9.35;4.97;;;;;;;2.99;100.00;102638.31;5016005;28;20537;-45
2023/05/04 00:10:00;;;;;;;11.57;3.95;;;;;;;3.00;100.00;102637.47;5005168;28;20185;-44
2023/05/04 00:12:26;;;;;;;7.43;3.97;;;;;;;3.05;100.00;102635.81;5007865;28;20633;-43
2023/05/04 00:14:51;;;;;;;7.25;4.13;;;;;;;3.01;100.00;102631.31;5021425;28;20180;-43
2023/05/04 00:17:17;;;;;;;7.75;3.90;;;;;;;3.06;100.00;102634.03;5014493;28;20188;-42
2023/05/04 00:19:43;;;;;;;6.75;3.85;;;;;;;3.18;100.00;102639.63;5009661;28;20546;-44
2023/05/04 00:22:09;;;;;;;6.13;3.60;;;;;;;3.13;100.00;102635.06;5015163;28;20275;-44
2023/05/04 00:24:35;;;;;;;10.13;4.13;;;;;;;2.85;100.00;102626.53;5011507;28;20537;-42
2023/05/04 00:27:01;;;;;;;6.85;4.25;;;;;;;2.90;100.00;102622.22;5017659;28;20215;-44
2023/05/04 00:29:26;;;;;;;5.63;3.75;;;;;;;2.88;100.00;102619.53;5010456;28;20263;-44
2023/05/04 00:31:52;;;;;;;5.55;3.97;;;;;;;2.93;100.00;102614.38;5006634;28;20227;-44
2023/05/04 00:34:17;;;;;;;6.75;3.83;;;;;;;2.98;100.00;102603.88;5019285;28;20542;-42
2023/05/04 00:36:43;;;;;;;8.85;4.00;;;;;;;2.96;100.00;102611.78;5015991;28;20176;-42
2023/05/04 00:39:08;;;;;;;9.25;4.20;;;;;;;2.79;100.00;102613.16;5011159;28;20621;-44
2023/05/04 00:41:34;;;;;;;6.78;4.15;;;;;;;2.84;100.00;102606.22;5008930;28;20204;-43
2023/05/04 00:44:03;;;;;;;5.15;3.47;;;;;;;2.81;100.00;102603.50;5016751;28;20180;-44
2023/05/04 00:46:29;;;;;;;14.63;4.20;;;;;;;2.64;100.00;102598.72;5015410;28;20230;-42
2023/05/04 00:48:55;;;;;;;5.57;3.85;;;;;;;2.47;100.00;102595.69;5008901;28;20745;-43
2023/05/04 00:51:23;;;;;;;7.75;4.13;;;;;;;2.34;100.00;102603.28;5012846;28;20219;-43
2023/05/04 00:53:50;;;;;;;5.68;3.60;;;;;;;2.34;100.00;102609.50;5011164;28;20200;-42
2023/05/04 00:56:20;;;;;;;9.98;4.13;;;;;;;2.45;100.00;102601.81;5006011;28;20195;-41
2023/05/04 00:58:45;;;;;;;7.80;4.32;;;;;;;2.47;100.00;102598.34;5007928;28;20418;-43
2023/05/04 01:01:11;;;;;;;10.93;4.22;;;;;;;2.57;100.00;102609.13;5008423;28;20663;-43
2023/05/04 01:03:37;;;;;;;9.70;4.30;;;;;;;2.47;100.00;102598.34;5020917;28;20738;-41
2023/05/04 01:06:42;;;;;;;7.97;4.05;;;;;;;2.47;100.00;102602.72;5014534;28;20509;-41
2023/05/04 01:09:17;;;;;;;6.57;3.92;;;;;;;2.32;100.00;102605.00;4972451;28;20196;-42
2023/05/04 01:12:01;;;;;;;7.60;4.00;;;;;;;2.31;100.00;102593.53;5008681;28;20200;-44
2023/05/04 01:14:29;;;;;;;6.90;4.20;;;;;;;2.23;100.00;102600.38;5016299;28;20197;-43
2023/05/04 01:16:58;;;;;;;11.48;4.32;;;;;;;2.20;100.00;102587.97;5006765;28;20211;-44
2023/05/04 01:19:26;;;;;;;9.48;4.57;;;;;;;2.19;100.00;102603.81;5002607;28;20276;-42
2023/05/04 01:21:52;;;;;;;7.63;3.78;;;;;;;2.22;100.00;102590.66;5016532;28;20270;-42
2023/05/04 01:24:18;;;;;;;6.75;3.88;;;;;;;2.31;100.00;102605.88;5015054;28;20651;-45
2023/05/04 01:26:47;;;;;;;6.38;3.78;;;;;;;2.26;100.00;102598.69;4998943;28;20220;-44
2023/05/04 01:29:29;;;;;;;6.88;4.28;;;;;;;2.32;100.00;102600.63;5024934;28;20232;-43
2023/05/04 01:31:55;;;;;;;5.60;3.92;;;;;;;2.37;100.00;102593.69;5014301;28;20278;-42
2023/05/04 01:34:21;;;;;;;4.75;4.10;;;;;;;2.38;100.00;102589.28;5022233;28;20185;-43
2023/05/04 01:36:47;;;;;;;5.93;4.00;;;;;;;2.18;100.00;102597.63;5006474;28;20548;-45
2023/05/04 01:39:14;;;;;;;6.80;4.35;;;;;;;2.11;100.00;102593.03;5006061;28;20279;-41
2023/05/04 01:41:41;;;;;;;5.70;3.72;;;;;;;2.23;100.00;102576.56;5012391;28;20191;-43
2023/05/04 01:44:07;;;;;;;5.93;4.28;;;;;;;2.09;100.00;102585.94;4993296;28;20184;-43
2023/05/04 01:46:32;;;;;;;7.25;3.60;;;;;;;2.17;100.00;102576.44;5010112;28;20274;-43
2023/05/04 01:48:58;;;;;;;10.93;4.75;;;;;;;1.92;100.00;102578.44;5016086;28;20173;-44
2023/05/04 01:51:24;;;;;;;6.43;4.38;;;;;;;1.83;100.00;102568.53;5015935;28;20552;-43
2023/05/04 01:53:49;;;;;;;6.53;3.92;;;;;;;1.73;100.00;102577.09;5004969;28;20205;-43
2023/05/04 01:56:16;;;;;;;5.50;4.20;;;;;;;1.75;100.00;102569.19;5010207;28;20679;-43
2023/05/04 01:58:42;;;;;;;7.35;3.80;;;;;;;1.65;100.00;102582.16;5009283;28;20221;-45
2023/05/04 02:01:08;;;;;;;6.00;3.80;;;;;;;1.67;100.00;102581.34;5016186;28;20217;-45
2023/05/04 02:03:33;;;;;;;6.43;4.80;;;;;;;1.53;100.00;102573.00;5003274;28;20185;-44
2023/05/04 02:05:59;;;;;;;10.00;4.35;;;;;;;1.55;100.00;102573.94;5003471;28;20187;-44
2023/05/04 02:08:25;;;;;;;10.30;4.40;;;;;;;1.53;100.00;102584.50;5014104;28;20189;-45
2023/05/04 02:10:51;;;;;;;8.73;4.93;;;;;;;1.59;100.00;102574.06;5013524;28;20203;-42
2023/05/04 02:13:17;;;;;;;6.00;4.10;;;;;;;1.77;100.00;102591.25;5014351;28;20506;-41
2023/05/04 02:15:43;;;;;;;5.18;4.22;;;;;;;1.79;100.00;102582.56;5008805;28;20636;-42
2023/05/04 02:18:09;;;;;;;6.75;3.97;;;;;;;1.79;100.00;102576.34;5014701;28;20470;-42
2023/05/04 02:20:34;;;;;;;10.52;4.78;;;;;;;1.61;100.00;102579.41;5014337;28;20248;-44
2023/05/04 02:23:00;;;;;;;9.60;4.63;;;;;;;1.54;100.00;102569.53;5008781;28;20184;-44
2023/05/04 02:25:26;;;;;;;9.85;4.80;;;;;;;1.46;100.00;102571.94;5009217;28;20184;-44
2023/05/04 02:27:51;;;;;;;9.18;4.80;;;;;;;1.36;100.00;102576.09;5016263;28;20197;-41
2023/05/04 02:30:17;;;;;;;9.75;4.95;;;;;;;1.33;100.00;102576.00;5012598;28;20196;-42
2023/05/04 02:32:42;;;;;;;8.32;5.05;;;;;;;1.34;100.00;102579.56;5012700;28;20259;-43
2023/05/04 02:35:08;;;;;;;8.20;4.93;;;;;;;1.41;100.00;102570.94;5009203;28;20684;-42
2023/05/04 02:37:34;;;;;;;6.82;4.40;;;;;;;1.36;100.00;102576.09;5012634;28;20213;-40
2023/05/04 02:40:03;;;;;;;6.78;5.00;;;;;;;1.38;100.00;102577.03;5005745;28;20220;-44
2023/05/04 02:42:28;;;;;;;6.43;4.95;;;;;;;1.39;100.00;102565.59;5007222;28;20704;-43
2023/05/04 02:44:55;;;;;;;8.02;4.53;;;;;;;1.47;100.00;102565.84;5014423;28;20553;-44
2023/05/04 02:47:20;;;;;;;10.00;5.28;;;;;;;1.47;100.00;102575.50;5013808;28;20188;-43
2023/05/04 02:49:46;;;;;;;8.52;4.95;;;;;;;1.44;100.00;102569.28;5017542;28;20270;-50
2023/05/04 02:52:12;;;;;;;8.63;4.60;;;;;;;1.46;100.00;102574.59;4998887;28;20205;-43
2023/05/04 02:54:37;;;;;;;9.45;5.28;;;;;;;1.30;100.00;102565.38;5011123;28;20712;-44
2023/05/04 02:57:03;;;;;;;10.85;4.82;;;;;;;1.37;100.00;102569.06;5011270;28;20215;-43
2023/05/04 02:59:29;;;;;;;8.30;4.85;;;;;;;1.28;100.00;102563.53;5008322;28;20246;-43
2023/05/04 03:01:54;;;;;;;9.50;4.80;;;;;;;1.33;100.00;102568.06;5010300;28;20204;-44
2023/05/04 03:04:20;;;;;;;6.18;4.82;;;;;;;1.23;100.00;102563.41;5015079;28;20192;-44
2023/05/04 03:06:46;;;;;;;8.43;4.85;;;;;;;1.20;100.00;102574.78;5018158;28;20198;-43
2023/05/04 03:09:11;;;;;;;7.70;4.90;;;;;;;1.36;100.00;102576.09;5021789;28;20191;-43
2023/05/04 03:11:37;;;;;;;8.98;4.50;;;;;;;1.38;100.00;102576.16;5003863;28;20204;-42
2023/05/04 03:14:02;;;;;;;6.97;4.65;;;;;;;1.38;100.00;102581.44;5009105;28;20168;-44
2023/05/04 03:16:28;;;;;;;9.82;4.78;;;;;;;1.21;100.00;102576.56;5012263;28;20288;-44
2023/05/04 03:18:54;;;;;;;7.72;5.05;;;;;;;1.19;100.00;102572.09;5008922;28;20184;-43
2023/05/04 03:21:20;;;;;;;7.15;4.97;;;;;;;1.24;100.00;102581.91;5013794;28;20208;-44
2023/05/04 03:23:46;;;;;;;7.95;5.32;;;;;;;1.35;100.00;102574.28;4999575;28;20272;-42
2023/05/04 03:26:12;;;;;;;9.70;5.18;;;;;;;1.18;100.00;102575.56;5007116;28;20271;-44
2023/05/04 03:28:37;;;;;;;5.63;4.53;;;;;;;1.07;100.00;102572.63;5010344;28;20220;-43
2023/05/04 03:31:03;;;;;;;11.70;5.55;;;;;;;1.00;100.00;102575.94;5010897;28;20200;-44
2023/05/04 03:33:28;;;;;;;7.85;5.72;;;;;;;0.99;100.00;102568.88;5017003;28;20345;-45
2023/05/04 03:35:55;;;;;;;10.07;5.43;;;;;;;0.99;100.00;102574.16;5012995;28;20209;-44
2023/05/04 03:38:20;;;;;;;9.63;5.45;;;;;;;1.00;100.00;102575.94;5006847;28;20200;-43
2023/05/04 03:40:46;;;;;;;10.13;5.88;;;;;;;1.18;100.00;102573.84;5002173;28;20344;-45
2023/05/04 03:43:12;;;;;;;6.43;4.45;;;;;;;1.29;100.00;102570.59;5017737;28;20185;-43
2023/05/04 03:45:38;;;;;;;7.32;5.38;;;;;;;1.32;100.00;102579.50;5011993;28;20602;-43
2023/05/04 03:48:04;;;;;;;9.73;5.85;;;;;;;1.29;100.00;102587.34;5008503;28;20388;-43
2023/05/04 03:50:30;;;;;;;12.43;5.80;;;;;;;1.10;100.00;102588.56;5008527;28;20181;-43
2023/05/04 03:52:56;;;;;;;7.43;5.95;;;;;;;1.10;100.00;102578.00;5018324;28;20781;-43
2023/05/04 03:55:24;;;;;;;8.80;6.05;;;;;;;1.03;100.00;102576.03;5009999;28;20192;-43
2023/05/04 03:57:50;;;;;;;9.95;6.35;;;;;;;1.08;100.00;102584.09;5003167;28;20184;-43
2023/05/04 04:00:16;;;;;;;9.52;6.25;;;;;;;1.30;100.00;102582.97;4998308;28;20208;-43
2023/05/04 04:02:48;;;;;;;9.18;6.10;;;;;;;1.27;100.00;102580.22;5014657;28;20200;-41
2023/05/04 04:05:18;;;;;;;11.93;6.20;;;;;;;1.21;100.00;102571.28;5013370;28;20285;-43
2023/05/04 04:07:44;;;;;;;7.07;5.95;;;;;;;1.31;100.00;102571.53;5015880;28;20192;-45
2023/05/04 04:10:09;;;;;;;12.20;6.47;;;;;;;1.37;100.00;102564.66;5012567;28;20230;-44
2023/05/04 04:12:35;;;;;;;9.85;5.80;;;;;;;1.51;100.00;102562.44;4995463;28;20593;-43
2023/05/04 04:15:01;;;;;;;10.00;6.05;;;;;;;1.55;100.00;102548.47;5013625;28;20653;-44
2023/05/04 04:17:26;;;;;;;9.00;6.20;;;;;;;1.64;100.00;102553.09;5010718;28;20646;-44
2023/05/04 04:19:52;;;;;;;11.40;6.88;;;;;;;1.71;100.00;102543.56;5018366;28;20215;-44
2023/05/04 04:22:17;;;;;;;11.23;6.90;;;;;;;1.82;100.00;102544.72;5023875;28;20208;-44
2023/05/04 04:24:43;;;;;;;11.80;6.30;;;;;;;1.99;100.00;102539.84;5013535;28;20650;-41
2023/05/04 04:27:09;;;;;;;13.05;6.35;;;;;;;2.06;100.00;102544.44;5017275;28;20254;-45
2023/05/04 04:29:34;;;;;;;11.63;6.70;;;;;;;2.02;100.00;102548.75;5017443;28;20211;-44
2023/05/04 04:32:01;;;;;;;10.23;6.05;;;;;;;2.14;100.00;102548.16;5013832;28;20745;-43
2023/05/04 04:34:27;;;;;;;8.68;5.80;;;;;;;2.28;100.00;102551.16;5010137;28;20169;-45
2023/05/04 04:36:52;;;;;;;9.88;6.28;;;;;;;2.25;100.00;102564.28;5013793;28;20732;-41
2023/05/04 04:39:18;;;;;;;11.90;6.72;;;;;;;2.34;100.00;102560.97;5026364;28;20340;-45
2023/05/04 04:41:43;;;;;;;11.40;7.13;;;;;;;2.40;100.00;102564.63;5014569;28;20236;-45
2023/05/04 04:44:10;;;;;;;10.10;6.55;;;;;;;2.48;100.00;102568.38;5009691;28;20256;-42
2023/05/04 04:46:36;;;;;;;13.60;6.97;;;;;;;2.53;100.00;102563.19;5006071;28;20264;-44
2023/05/04 04:49:01;;;;;;;12.32;6.88;;;;;;;2.56;100.00;102562.34;5014493;28;20276;-45
2023/05/04 04:51:27;;;;;;;9.32;7.00;;;;;;;2.64;100.00;102572.25;5013129;28;20242;-46
2023/05/04 04:53:52;;;;;;;13.00;7.47;;;;;;;2.72;100.00;102568.91;5007457;28;20200;-47
2023/05/04 04:56:18;;;;;;;12.85;7.40;;;;;;;2.74;100.00;102578.66;5013069;28;20643;-45
2023/05/04 04:58:44;;;;;;;12.48;6.72;;;;;;;2.90;100.00;102574.59;5008220;28;20196;-44
2023/05/04 05:01:16;;;;;;;12.70;7.28;;;;;;;2.89;100.00;102568.41;5010863;28;20205;-44
2023/05/04 05:03:43;;;;;;;13.75;7.32;;;;;;;2.97;100.00;102560.59;5009672;28;20190;-48
2023/05/04 05:06:10;;;;;;;12.73;7.35;;;;;;;3.03;100.00;102567.78;5011869;28;20316;-46
2023/05/04 05:08:36;;;;;;;11.93;7.70;;;;;;;3.05;100.00;102558.13;5022871;28;20176;-48
2023/05/04 05:11:02;;;;;;;8.93;7.32;;;;;;;3.13;100.00;102564.50;5013952;28;20652;-45
2023/05/04 05:13:29;;;;;;;11.35;7.32;;;;;;;3.23;100.00;102561.13;5021024;28;20196;-46
2023/05/04 05:15:55;;;;;;;11.20;7.43;;;;;;;3.26;100.00;102557.69;5014302;28;20191;-45
2023/05/04 05:18:20;;;;;;;11.20;7.72;;;;;;;3.41;100.00;102554.41;5002148;28;20181;-46
2023/05/04 05:20:46;;;;;;;10.55;7.35;;;;;;;3.56;100.00;102552.06;5006624;28;20185;-44
2023/05/04 05:23:11;;;;;;;14.55;8.20;;;;;;;3.71;100.00;102567.34;5017052;28;20675;-46
2023/05/04 05:25:37;;;;;;;10.27;7.13;;;;;;;3.94;100.00;102565.13;5020473;28;20184;-44
2023/05/04 05:28:03;;;;;;;13.40;7.80;;;;;;;4.21;100.00;102566.44;4998402;28;20279;-44
2023/05/04 05:30:28;;;;;;;11.30;8.00;;;;;;;4.42;100.00;102573.84;5010698;28;20184;-49
2023/05/04 05:32:54;;;;;;;15.63;7.90;;;;;;;4.66;100.00;102568.00;5006234;28;20618;-44
2023/05/04 05:35:20;;;;;;;17.80;8.93;;;;;;;4.97;100.00;102555.16;5014984;28;20199;-45
2023/05/04 05:37:47;;;;;;;13.98;8.77;;;;;;;5.22;100.00;102553.66;5011779;28;20209;-46
2023/05/04 05:40:14;;;;;;;10.90;8.48;;;;;;;5.46;100.00;102564.56;5007126;28;20195;-49
2023/05/04 05:42:41;;;;;;;14.77;9.30;;;;;;;5.66;100.00;102563.88;5009382;28;20197;-45
2023/05/04 05:45:09;;;;;;;15.98;8.52;;;;;;;5.78;100.00;102558.69;5009356;28;20194;-48
2023/05/04 05:47:35;;;;;;;16.13;9.50;;;;;;;5.74;100.00;102555.09;5010026;28;20267;-45
2023/05/04 05:50:02;;;;;;;17.33;9.55;;;;;;;5.90;100.00;102561.47;5001715;28;20188;-48
2023/05/04 05:52:28;;;;;;;15.98;8.18;;;;;;;6.25;100.00;102557.34;5022807;28;20208;-45
2023/05/04 05:54:53;;;;;;;14.82;9.52;;;;;;;6.45;100.00;102565.47;5005093;28;20712;-47
2023/05/04 05:57:19;;;;;;;14.82;8.80;;;;;;;6.69;100.00;102557.66;5007147;28;20176;-49
2023/05/04 05:59:46;;;;;;;15.48;9.75;;;;;;;7.25;100.00;102564.09;5005715;28;20184;-47
2023/05/04 06:02:13;;;;;;;15.77;8.82;;;;;;;7.67;100.00;102554.44;5004688;28;20209;-50
2023/05/04 06:04:43;;;;;;;11.32;7.97;;;;;;;8.11;100.00;102548.25;5005745;28;20212;-46
2023/05/04 06:07:09;;;;;;;12.18;7.15;;;;;;;8.53;100.00;102542.91;5013277;28;20274;-43
2023/05/04 06:09:35;;;;;;;12.13;7.03;;;;;;;8.94;100.00;102532.03;5014831;28;20211;-44
2023/05/04 06:12:01;;;;;;;13.13;7.13;;;;;;;9.27;100.00;102536.38;5021293;28;20232;-43
2023/05/04 06:14:27;;;;;;;11.55;6.18;;;;;;;9.38;100.00;102528.28;5018237;28;20691;-42
2023/05/04 06:16:52;;;;;;;13.20;6.22;;;;;;;9.68;100.00;102513.78;5024214;28;20272;-46
2023/05/04 06:19:17;;;;;;;13.68;6.57;;;;;;;9.83;98.02;102523.50;5026355;28;20184;-45
2023/05/04 06:21:48;;;;;;;15.85;6.50;;;;;;;9.41;96.58;102519.34;4999761;28;20212;-50
2023/05/04 06:24:14;;;;;;;11.75;6.97;;;;;;;9.26;95.63;102523.00;5002930;28;20192;-43
2023/05/04 06:26:39;;;;;;;19.67;7.82;;;;;;;9.64;95.57;102520.09;5010792;28;20568;-42
2023/05/04 06:29:05;;;;;;;12.13;6.95;;;;;;;9.60;95.34;102517.41;5008746;28;20185;-43
2023/05/04 06:31:30;;;;;;;12.68;5.80;;;;;;;9.99;94.16;102523.38;5005833;28;20234;-44
2023/05/04 06:33:56;;;;;;;12.88;5.43;;;;;;;10.26;91.90;102515.09;5010893;28;20192;-43
2023/05/04 06:36:24;;;;;;;11.50;4.88;;;;;;;10.45;90.40;102505.13;5001716;28;20176;-43
2023/05/04 06:38:50;;;;;;;9.05;5.53;;;;;;;10.64;88.78;102507.56;5002535;28;20672;-47
2023/05/04 06:41:15;;;;;;;13.35;5.30;;;;;;;11.19;87.74;102489.88;5020132;28;20302;-45
2023/05/04 06:43:41;;;;;;;10.20;4.82;;;;;;;11.45;85.76;102493.06;5001114;28;20177;-48
2023/05/04 06:46:06;;;;;;;8.30;4.43;;;;;;;10.99;83.83;102483.00;5018836;28;20961;-44
2023/05/04 06:48:32;;;;;;;12.10;5.45;;;;;;;11.33;83.16;102483.41;5006421;28;20259;-45
2023/05/04 06:50:57;;;;;;;10.10;4.60;;;;;;;11.56;82.40;102482.16;5010393;28;20569;-44
2023/05/04 06:53:24;;;;;;;12.05;5.65;;;;;;;11.08;81.89;102473.94;5007197;28;20682;-44
2023/05/04 06:55:49;;;;;;;11.70;5.72;;;;;;;11.13;82.85;102494.44;5012316;28;20267;-42
2023/05/04 06:58:18;;;;;;;10.73;4.97;;;;;;;11.00;83.29;102487.47;5006879;28;20325;-44
2023/05/04 07:00:44;;;;;;;10.18;4.82;;;;;;;11.33;81.49;102490.59;5011047;28;20181;-43
2023/05/04 07:03:10;;;;;;;8.88;4.25;;;;;;;11.36;79.79;102477.09;5014358;28;20256;-44
2023/05/04 07:05:36;;;;;;;10.73;4.15;;;;;;;11.38;78.93;102479.78;5013956;28;20204;-43
2023/05/04 07:08:02;;;;;;;14.68;4.50;;;;;;;12.15;77.99;102463.28;5013097;28;20177;-44
2023/05/04 07:10:28;;;;;;;6.90;4.40;;;;;;;12.50;75.97;102450.97;5010819;28;20191;-44
2023/05/04 07:12:54;;;;;;;10.77;4.47;;;;;;;13.09;74.11;102455.97;5008240;28;20212;-43
2023/05/04 07:15:19;;;;;;;12.00;4.18;;;;;;;12.78;71.74;102440.53;5004906;28;20627;-45
2023/05/04 07:17:46;;;;;;;9.73;3.83;;;;;;;12.94;69.67;102420.44;5011991;28;20186;-44
2023/05/04 07:20:12;;;;;;;9.18;3.72;;;;;;;12.99;67.32;102401.50;5015009;28;20271;-46
2023/05/04 07:22:38;;;;;;;9.80;3.30;;;;;;;12.50;66.42;102392.69;5021938;28;20203;-41
2023/05/04 07:25:04;;;;;;;9.80;3.65;;;;;;;12.10;67.93;102400.69;5021665;28;20177;-47
2023/05/04 07:27:30;;;;;;;9.63;3.08;;;;;;;12.64;66.31;102387.03;5010984;28;20184;-45
2023/05/04 07:29:56;;;;;;;7.82;2.78;;;;;;;12.21;63.55;102355.69;5008013;28;20188;-45
2023/05/04 07:32:21;;;;;;;10.23;2.95;;;;;;;12.80;63.21;102359.81;5003625;28;20221;-43
2023/05/04 07:34:47;;;;;;;8.13;3.08;;;;;;;12.86;62.88;102370.44;4999932;28;20181;-49
2023/05/04 07:37:14;;;;;;;9.07;3.60;;;;;;;12.88;62.26;102356.03;5004247;28;20208;-42
2023/05/04 07:39:40;;;;;;;7.43;3.33;;;;;;;12.93;63.15;102372.06;5009477;28;20272;-42
2023/05/04 07:42:06;;;;;;;7.50;2.70;;;;;;;13.00;62.39;102357.53;5018254;28;20659;-47
2023/05/04 07:44:32;;;;;;;10.20;3.00;;;;;;;12.85;61.88;102344.44;4996320;28;20681;-45
2023/05/04 07:46:58;;;;;;;10.02;3.60;;;;;;;12.43;62.40;102342.69;5007933;28;20228;-46
2023/05/04 07:49:24;;;;;;;8.13;3.05;;;;;;;12.00;63.37;102358.81;5023781;28;20180;-45
2023/05/04 07:51:50;;;;;;;8.82;3.42;;;;;;;12.48;63.69;102364.97;5003028;28;20209;-44
2023/05/04 07:54:16;;;;;;;8.93;3.40;;;;;;;13.14;62.30;102358.09;5008977;28;20185;-47
2023/05/04 07:56:41;;;;;;;5.65;3.22;;;;;;;13.32;61.16;102326.28;5013155;28;20235;-43
2023/05/04 07:59:07;;;;;;;7.78;3.17;;;;;;;13.58;61.31;102329.16;5008008;28;20599;-45
2023/05/04 08:01:32;;;;;;;11.60;3.25;;;;;;;13.09;62.35;102338.47;5009930;28;20346;-44
2023/05/04 08:03:58;;;;;;;9.35;3.55;;;;;;;13.37;62.32;102352.16;5008933;28;20191;-49
2023/05/04 08:06:23;;;;;;;10.38;3.33;;;;;;;13.85;60.83;102336.53;5011227;28;20187;-43
2023/05/04 08:08:49;;;;;;;12.23;3.60;;;;;;;12.69;62.43;102334.03;5023383;28;20184;-44
2023/05/04 08:11:15;;;;;;;8.82;3.65;;;;;;;12.58;63.50;102362.97;5011187;28;20305;-45
2023/05/04 08:13:41;;;;;;;8.52;3.92;;;;;;;12.77;65.59;102391.22;5018063;28;20667;-48
2023/05/04 08:16:08;;;;;;;14.02;4.13;;;;;;;13.06;65.19;102392.38;5017979;28;20184;-44
2023/05/04 08:18:34;;;;;;;11.02;4.30;;;;;;;12.75;64.34;102387.69;5010059;28;20185;-45
2023/05/04 08:20:59;;;;;;;11.10;3.40;;;;;;;12.56;65.52;102400.63;5000951;28;20197;-45
2023/05/04 08:23:25;;;;;;;11.45;4.20;;;;;;;12.48;65.71;102396.34;5008842;28;20199;-49
2023/05/04 08:25:51;;;;;;;8.50;4.15;;;;;;;11.86;67.03;102393.97;5012161;28;20212;-44
2023/05/04 08:28:17;;;;;;;8.35;4.40;;;;;;;12.06;67.71;102394.50;5014318;28;20232;-44
2023/05/04 08:30:42;;;;;;;12.15;4.18;;;;;;;12.27;67.64;102403.94;5003093;28;20715;-46
2023/05/04 08:33:08;;;;;;;10.38;4.35;;;;;;;11.52;68.38;102400.81;5008867;28;20247;-46
2023/05/04 08:35:34;;;;;;;12.15;4.75;;;;;;;11.76;70.60;102417.38;5015659;28;20644;-44
2023/05/04 08:38:00;;;;;;;12.98;5.43;;;;;;;12.04;71.55;102427.69;5012576;28;20571;-48
2023/05/04 08:40:26;;;;;;;9.70;4.53;;;;;;;12.02;72.16;102425.00;5012987;28;20189;-50
2023/05/04 08:42:52;;;;;;;8.90;4.43;;;;;;;11.39;71.74;102423.41;5013785;28;20278;-50
2023/05/04 08:45:18;;;;;;;12.80;5.00;;;;;;;11.65;72.18;102409.53;5015122;28;20434;-42
2023/05/04 08:47:44;;;;;;;13.73;4.53;;;;;;;11.95;72.25;102401.88;5009276;28;20184;-46
2023/05/04 08:50:11;;;;;;;8.77;4.95;;;;;;;12.18;71.87;102393.38;5011166;28;20184;-49
2023/05/04 08:52:37;;;;;;;11.80;5.85;;;;;;;11.39;74.59;102412.69;5013855;28;20220;-44
2023/05/04 08:55:04;;;;;;;13.75;6.85;;;;;;;11.10;77.10;102432.75;5015564;28;20589;-44
2023/05/04 08:57:32;;;;;;;12.60;5.90;;;;;;;11.11;78.66;102439.03;5015568;28;20185;-41
2023/05/04 08:59:59;;;;;;;11.40;5.72;;;;;;;11.10;79.49;102435.44;5003854;28;20197;-42
2023/05/04 09:02:25;;;;;;;10.20;5.18;;;;;;;10.99;79.71;102429.34;5008698;28;20211;-49
2023/05/04 09:04:52;;;;;;;10.02;4.78;;;;;;;11.30;78.08;102424.44;5016669;28;20193;-46
2023/05/04 09:07:21;;;;;;;15.80;5.18;;;;;;;11.30;77.32;102415.47;5008231;28;20656;-45
2023/05/04 09:09:49;;;;;;;10.50;5.45;;;;;;;11.05;77.00;102423.03;5013169;28;20560;-45
2023/05/04 09:12:15;;;;;;;12.68;5.10;;;;;;;11.14;78.31;102428.25;5015817;28;20311;-45
2023/05/04 09:14:41;;;;;;;10.02;4.72;;;;;;;11.76;77.82;102428.13;5020098;28;20564;-46
2023/05/04 09:17:13;;;;;;;11.18;5.60;;;;;;;11.58;78.49;102423.09;5015800;28;20176;-49
2023/05/04 09:19:42;;;;;;;12.52;5.10;;;;;;;11.31;78.45;102425.31;5004098;28;20255;-47
2023/05/04 09:22:18;;;;;;;11.52;3.97;;;;;;;11.72;75.88;102411.22;5016516;28;20196;-48
2023/05/04 09:24:45;;;;;;;10.07;3.67;;;;;;;11.77;73.77;102400.38;5008051;28;20203;-47
2023/05/04 09:27:16;;;;;;;12.32;4.78;;;;;;;12.01;73.07;102379.41;5012913;28;20192;-48
2023/05/04 09:29:43;;;;;;;11.98;4.70;;;;;;;12.17;71.88;102375.47;5012462;28;20180;-47
2023/05/04 09:32:13;;;;;;;10.45;4.35;;;;;;;12.34;70.54;102362.56;5016621;28;20710;-46
2023/05/04 09:34:47;;;;;;;11.57;4.32;;;;;;;12.51;69.21;102359.53;5003492;28;20560;-48
2023/05/04 09:37:12;;;;;;;11.25;4.47;;;;;;;12.62;68.23;102356.63;5008352;28;20191;-47
2023/05/04 09:39:51;;;;;;;7.35;4.40;;;;;;;11.70;70.36;102369.19;5010433;28;20628;-47
2023/05/04 09:42:17;;;;;;;9.35;4.45;;;;;;;11.91;70.70;102368.81;5014927;28;20211;-47
2023/05/04 09:44:43;;;;;;;8.57;3.40;;;;;;;12.31;69.73;102368.03;5006498;28;20275;-47
2023/05/04 09:47:09;;;;;;;7.57;3.80;;;;;;;12.52;66.64;102342.47;5005158;28;20676;-46
2023/05/04 09:49:36;;;;;;;7.07;3.58;;;;;;;11.93;65.75;102317.75;5020463;28;20242;-48
2023/05/04 09:52:04;;;;;;;8.20;3.83;;;;;;;12.75;65.46;102322.25;5009501;28;20583;-47
2023/05/04 09:54:33;;;;;;;10.05;4.00;;;;;;;12.74;63.97;102307.03;5005192;28;20220;-47
2023/05/04 09:57:12;;;;;;;7.10;3.38;;;;;;;12.53;63.44;102303.94;5011498;28;20180;-46
2023/05/04 09:59:39;;;;;;;5.55;3.15;;;;;;;12.93;62.44;102285.97;5018688;28;20193;-46
2023/05/04 10:02:06;;;;;;;10.48;3.80;;;;;;;13.09;62.39;102294.53;5013647;28;20219;-45
2023/05/04 10:04:33;;;;;;;6.13;3.55;;;;;;;13.44;61.83;102280.19;5008292;28;20226;-46
2023/05/04 10:07:02;;;;;;;8.40;3.78;;;;;;;13.20;61.42;102289.75;5002874;28;20176;-47
2023/05/04 10:09:29;;;;;;;8.30;3.83;;;;;;;13.59;61.35;102290.53;5016734;28;20202;-45
2023/05/04 10:11:58;;;;;;;7.95;3.60;;;;;;;13.58;60.11;102267.22;5014142;28;20572;-47
2023/05/04 10:14:23;;;;;;;8.93;3.67;;;;;;;13.05;60.38;102253.34;5007814;28;20652;-46
2023/05/04 10:17:00;;;;;;;8.85;3.80;;;;;;;13.25;61.05;102277.09;5008260;28;20231;-46
2023/05/04 10:19:42;;;;;;;8.50;4.35;;;;;;;13.36;61.35;102274.13;5008914;28;20206;-46
2023/05/04 10:22:10;;;;;;;7.25;4.07;;;;;;;13.23;61.01;102272.63;5009549;28;20204;-46
2023/05/04 10:24:41;;;;;;;10.77;3.75;;;;;;;13.24;61.33;102279.81;5007547;28;20558;-47
2023/05/04 10:27:11;;;;;;;7.88;3.63;;;;;;;13.08;61.46;102272.13;5007640;28;20181;-47
2023/05/04 10:29:37;;;;;;;8.45;3.40;;;;;;;12.92;62.36;102284.19;5012939;28;20188;-46
2023/05/04 10:32:03;;;;;;;8.45;3.70;;;;;;;13.07;62.17;102267.66;5009628;28;20296;-48
2023/05/04 10:34:33;;;;;;;9.10;3.60;;;;;;;13.20;61.88;102277.16;5002866;28;20184;-47
2023/05/04 10:37:00;;;;;;;9.00;3.58;;;;;;;13.20;61.50;102278.97;5014423;28;20693;-49
2023/05/04 10:39:29;;;;;;;11.00;4.05;;;;;;;13.22;61.81;102277.13;4994370;28;20705;-47
2023/05/04 10:41:55;;;;;;;7.90;3.40;;;;;;;12.86;61.44;102277.16;5007173;28;20285;-47
2023/05/04 10:44:21;;;;;;;8.68;3.63;;;;;;;13.33;61.33;102266.13;5008759;28;20199;-47
2023/05/04 10:46:58;;;;;;;6.80;3.05;;;;;;;13.98;60.22;102259.81;5019706;28;20186;-48
2023/05/04 10:49:24;;;;;;;11.43;3.53;;;;;;;13.78;59.97;102255.00;5020997;28;20190;-48
2023/05/04 10:51:50;;;;;;;7.85;3.75;;;;;;;13.16;59.63;102231.53;5001340;28;20213;-46
2023/05/04 10:54:18;;;;;;;9.82;3.20;;;;;;;13.17;60.32;102241.41;5006014;28;20229;-47
2023/05/04 10:56:43;;;;;;;12.23;3.45;;;;;;;13.53;59.69;102239.53;5011381;28;20189;-45
2023/05/04 10:59:09;;;;;;;9.75;3.28;;;;;;;13.20;58.82;102220.66;5010823;28;20188;-47
2023/05/04 11:01:43;;;;;;;6.40;3.20;;;;;;;13.66;59.50;102231.13;5007609;28;20204;-45
2023/05/04 11:04:19;;;;;;;8.63;3.30;;;;;;;13.04;59.71;102218.44;5020605;28;20552;-47
2023/05/04 11:06:55;;;;;;;8.85;3.83;;;;;;;12.80;60.31;102233.41;5012288;28;20201;-48
2023/05/04 11:09:21;;;;;;;8.75;3.35;;;;;;;13.29;60.34;102227.63;5009605;28;20192;-46
2023/05/04 11:11:47;;;;;;;7.65;3.72;;;;;;;13.41;59.88;102222.88;5002893;28;20423;-47
2023/05/04 11:14:26;;;;;;;9.52;3.55;;;;;;;13.44;60.32;102231.72;5012946;28;20232;-46
2023/05/04 11:17:04;;;;;;;9.88;3.88;;;;;;;14.06;59.17;102229.94;5014463;28;20190;-47
2023/05/04 11:19:29;;;;;;;9.32;3.60;;;;;;;13.62;58.49;102203.38;5001193;28;20239;-46